Pine River, MN

6:26 PM CDT on July 23, 2017 (GMT -0500)
Pine River Regional

Weather History for KPWC - February, 2014

Change the Weather History Date:

Wednesday, February 19, 2014

  Actual Average Record
Temperature  
Mean Temperature 25 °F -  
Max Temperature 42 °F 27 °F 50 °F (2017)
Min Temperature 8 °F 8 °F -31 °F (2015)
Degree Days  
Heating Degree Days 40    
Moisture  
Dew Point 22 °F    
Average Humidity 73    
Maximum Humidity 93    
Minimum Humidity 53    
Precipitation  
Precipitation 0.00 in - - ()
Sea Level Pressure  
Sea Level Pressure 29.70 in    
Wind  
Wind Speed 6 mph (SSW)    
Max Wind Speed 15 mph    
Max Gust Speed 21 mph    
Visibility 9 miles    
Events Fog    
Averages and records for this station are not official NWS values.
T = Trace of Precipitation, MM = Missing Value Source: NWS Daily Summary

Daily Weather History Graph

Daily Weather History Graph

Search for Another Location

Airport or City:

Trip Planner

Search our weather history database for the weather conditions in past years. The results will help you decide how hot, cold, wet, or windy it might be!

Date:

Astronomy

Feb. 19, 2014 Rise Set
Actual Time 7:14 AM CST 5:48 PM CST
Civil Twilight 6:43 AM CST 6:19 PM CST
Nautical Twilight 6:08 AM CST 6:54 PM CST
Astronomical Twilight 5:33 AM CST 7:29 PM CST
Moon 11:03 PM CST (2/19) 9:02 AM CST (2/19)
Length of Visible Light 11h 35m
Length of Day
10h 33m
Waning Gibbous, 79% of the Moon is Illuminated
Feb 19
Waning Gibbous
Feb 22
Last Quarter
Mar 1
New
Mar 8
First Quarter
Mar 16
Full

Hourly Weather History & Observations

Time (CST) Temp. Windchill Dew Point Humidity Pressure Visibility Wind Dir Wind Speed Gust Speed Precip Events Conditions
12:13 AM 26.6 °F 20.0 °F 21.2 °F 80% 29.73 in 10.0 mi West 5.8 mph - N/A   Clear
12:33 AM 26.6 °F 20.0 °F 21.2 °F 80% 29.73 in 10.0 mi West 5.8 mph - N/A   Clear
12:53 AM 26.6 °F 19.1 °F 21.2 °F 80% 29.73 in 10.0 mi West 6.9 mph - N/A   Clear
1:13 AM 24.8 °F 20.5 °F 19.4 °F 80% 29.73 in 10.0 mi West 3.5 mph - N/A   Clear
1:32 AM 24.8 °F 19.1 °F 21.2 °F 86% 29.74 in 10.0 mi West 4.6 mph - N/A   Clear
1:53 AM 24.8 °F 19.1 °F 21.2 °F 86% 29.74 in 10.0 mi West 4.6 mph - N/A   Clear
2:13 AM 24.8 °F 17.9 °F 21.2 °F 86% 29.74 in 10.0 mi West 5.8 mph - N/A   Clear
2:33 AM 24.8 °F 20.5 °F 19.4 °F 80% 29.74 in 10.0 mi West 3.5 mph - N/A   Clear
2:52 AM 24.8 °F 20.5 °F 19.4 °F 80% 29.74 in 10.0 mi West 3.5 mph - N/A   Clear
3:13 AM 24.8 °F 20.5 °F 19.4 °F 80% 29.74 in 10.0 mi West 3.5 mph - N/A   Clear
3:33 AM 23.0 °F - 19.4 °F 86% 29.74 in 10.0 mi Calm Calm - N/A   Clear
3:52 AM 23.0 °F 17.0 °F 19.4 °F 86% 29.74 in 10.0 mi WSW 4.6 mph - N/A   Clear
4:13 AM 23.0 °F 18.4 °F 19.4 °F 86% 29.74 in 10.0 mi WSW 3.5 mph - N/A   Clear
4:33 AM 23.0 °F - 19.4 °F 86% 29.74 in 10.0 mi Calm Calm - N/A   Clear
4:52 AM 21.2 °F 16.4 °F 19.4 °F 93% 29.74 in 10.0 mi West 3.5 mph - N/A   Clear
5:13 AM 21.2 °F - 19.4 °F 93% 29.74 in 10.0 mi Calm Calm - N/A   Clear
5:33 AM 21.2 °F 16.4 °F 17.6 °F 86% 29.75 in 10.0 mi WSW 3.5 mph - N/A   Clear
5:53 AM 21.2 °F - 17.6 °F 86% 29.75 in 10.0 mi Calm Calm - N/A   Clear
6:13 AM 21.2 °F - 17.6 °F 86% 29.74 in 10.0 mi Calm Calm - N/A   Clear
6:33 AM 17.6 °F - 15.8 °F 93% 29.74 in 10.0 mi Calm Calm - N/A   Clear
6:52 AM 12.2 °F - 10.4 °F 92% 29.74 in 1.2 mi Calm Calm - N/A   Mist
7:13 AM 12.2 °F - 10.4 °F 92% 29.74 in 0.8 mi Calm Calm - N/A   Mist
7:33 AM 10.4 °F - 8.6 °F 92% 29.74 in 0.2 mi Calm Calm - N/A Fog Light Freezing Fog
7:53 AM 8.6 °F - 6.8 °F 92% 29.74 in 0.2 mi Calm Calm - N/A Fog Light Freezing Fog
8:13 AM 12.2 °F - 10.4 °F 92% 29.75 in 0.2 mi Calm Calm - N/A Fog Light Freezing Fog
8:32 AM 19.4 °F - 17.6 °F 93% 29.75 in 10.0 mi Calm Calm - N/A   Clear
8:53 AM 21.2 °F - 19.4 °F 93% 29.75 in 10.0 mi Calm Calm - N/A   Clear
9:13 AM 23.0 °F - 21.2 °F 93% 29.75 in 10.0 mi Calm Calm - N/A   Clear
9:32 AM 26.6 °F 19.1 °F 21.2 °F 80% 29.76 in 10.0 mi SW 6.9 mph - N/A   Clear
9:52 AM 28.4 °F 23.3 °F 21.2 °F 74% 29.75 in 10.0 mi WSW 4.6 mph - N/A   Clear
10:13 AM 30.2 °F 24.3 °F 21.2 °F 69% 29.75 in 10.0 mi SW 5.8 mph - N/A   Clear
10:33 AM 32.0 °F 26.4 °F 21.2 °F 64% 29.75 in 10.0 mi SW 5.8 mph - N/A   Clear
10:52 AM 33.8 °F 26.4 °F 21.2 °F 60% 29.74 in 10.0 mi SW 9.2 mph - N/A   Clear
11:13 AM 33.8 °F 26.4 °F 21.2 °F 60% 29.74 in 10.0 mi SW 9.2 mph - N/A   Clear
11:33 AM 35.6 °F 27.5 °F 23.0 °F 60% 29.75 in 10.0 mi WSW 11.5 mph 16.1 mph N/A   Clear
11:52 AM 35.6 °F 29.9 °F 21.2 °F 56% 29.74 in 10.0 mi WSW 6.9 mph - N/A   Clear
12:13 PM 37.4 °F 31.4 °F 23.0 °F 56% 29.74 in 10.0 mi SW 8.1 mph - N/A   Clear
12:32 PM 37.4 °F 31.4 °F 23.0 °F 56% 29.73 in 10.0 mi SW 8.1 mph - N/A   Clear
12:53 PM 37.4 °F 30.8 °F 23.0 °F 56% 29.71 in 10.0 mi SW 9.2 mph - N/A   Clear
1:13 PM 37.4 °F 32.1 °F 23.0 °F 56% 29.71 in 10.0 mi SSW 6.9 mph - N/A   Clear
1:32 PM 39.2 °F 33.6 °F 24.8 °F 56% 29.71 in 10.0 mi SSW 8.1 mph - N/A   Clear
1:52 PM 39.2 °F 34.2 °F 26.6 °F 61% 29.71 in 10.0 mi SSW 6.9 mph - N/A   Clear
2:12 PM 41.0 °F 38.0 °F 26.6 °F 57% 29.70 in 10.0 mi SSW 4.6 mph - N/A   Clear
2:33 PM 42.8 °F 38.6 °F 26.6 °F 53% 29.70 in 10.0 mi SW 6.9 mph - N/A   Clear
2:52 PM 41.0 °F 35.2 °F 26.6 °F 57% 29.69 in 10.0 mi South 9.2 mph - N/A   Clear
3:13 PM 41.0 °F 37.1 °F 26.6 °F 57% 29.68 in 10.0 mi South 5.8 mph - N/A   Clear
3:33 PM 41.0 °F 35.8 °F 26.6 °F 57% 29.68 in 10.0 mi South 8.1 mph - N/A   Clear
3:52 PM 41.0 °F 35.8 °F 26.6 °F 57% 29.68 in 10.0 mi SSE 8.1 mph - N/A   Clear
4:13 PM 39.2 °F 34.2 °F 24.8 °F 56% 29.67 in 10.0 mi SSE 6.9 mph - N/A   Clear
4:33 PM 39.2 °F 33.0 °F 26.6 °F 61% 29.67 in 10.0 mi SSE 9.2 mph - N/A   Mostly Cloudy
4:52 PM 39.2 °F 33.0 °F 26.6 °F 61% 29.67 in 10.0 mi SSE 9.2 mph - N/A   Overcast
5:13 PM 39.2 °F 32.5 °F 26.6 °F 61% 29.67 in 10.0 mi SE 10.4 mph - N/A   Mostly Cloudy
5:32 PM 37.4 °F 31.4 °F 26.6 °F 65% 29.67 in 10.0 mi SSE 8.1 mph - N/A   Mostly Cloudy
5:53 PM 37.4 °F 31.4 °F 26.6 °F 65% 29.67 in 10.0 mi SE 8.1 mph - N/A   Overcast
6:13 PM 37.4 °F 30.3 °F 26.6 °F 65% 29.66 in 10.0 mi SSE 10.4 mph - N/A   Overcast
6:33 PM 35.6 °F 28.6 °F 26.6 °F 70% 29.66 in 10.0 mi SE 9.2 mph - N/A   Overcast
6:53 PM 35.6 °F 28.0 °F 26.6 °F 70% 29.66 in 10.0 mi SE 10.4 mph - N/A   Overcast
7:12 PM 35.6 °F 28.6 °F 26.6 °F 70% 29.65 in 10.0 mi SE 9.2 mph - N/A   Mostly Cloudy
7:33 PM 35.6 °F 28.0 °F 26.6 °F 70% 29.65 in 10.0 mi SE 10.4 mph - N/A   Overcast
7:53 PM 35.6 °F 27.5 °F 26.6 °F 70% 29.64 in 10.0 mi SE 11.5 mph - N/A   Overcast
8:12 PM 35.6 °F 27.5 °F 26.6 °F 70% 29.63 in 10.0 mi SE 11.5 mph - N/A   Overcast
8:33 PM 35.6 °F 27.5 °F 26.6 °F 70% 29.62 in 10.0 mi SE 11.5 mph - N/A   Overcast
8:52 PM 35.6 °F 27.5 °F 26.6 °F 70% 29.62 in 10.0 mi SE 11.5 mph - N/A   Overcast
9:13 PM 35.6 °F 28.0 °F 26.6 °F 70% 29.62 in 10.0 mi SE 10.4 mph - N/A   Overcast
9:33 PM 35.6 °F 27.5 °F 26.6 °F 70% 29.61 in 10.0 mi SE 11.5 mph - N/A   Overcast
9:52 PM 35.6 °F 28.0 °F 26.6 °F 70% 29.61 in 10.0 mi SE 10.4 mph - N/A   Overcast
10:13 PM 35.6 °F 27.5 °F 28.4 °F 75% 29.60 in 10.0 mi SE 11.5 mph - N/A   Overcast
10:33 PM 35.6 °F 27.1 °F 28.4 °F 75% 29.60 in 10.0 mi SE 12.7 mph - N/A   Mostly Cloudy
10:53 PM 35.6 °F 26.6 °F 28.4 °F 75% 29.59 in 10.0 mi SSE 13.8 mph 19.6 mph N/A   Clear
11:12 PM 37.4 °F 28.5 °F 28.4 °F 70% 29.59 in 10.0 mi SSE 15.0 mph - N/A   Clear
11:32 PM 37.4 °F 29.3 °F 28.4 °F 70% 29.59 in 10.0 mi SSE 12.7 mph - N/A   Mostly Cloudy
11:53 PM 37.4 °F 28.9 °F 28.4 °F 70% 29.59 in 10.0 mi SSE 13.8 mph 20.7 mph N/A   Overcast